sensor_id;sensor_type;location;lat;lon;timestamp;temperature;humidity
86136;DHT22;76795;51.360;4.546;2024-03-06T00:02:10;8.80;90.30
86136;DHT22;76795;51.360;4.546;2024-03-06T00:04:36;8.70;90.30
86136;DHT22;76795;51.360;4.546;2024-03-06T00:07:02;8.70;90.50
86136;DHT22;76795;51.360;4.546;2024-03-06T00:09:28;8.70;90.40
86136;DHT22;76795;51.360;4.546;2024-03-06T00:11:54;8.60;90.30
86136;DHT22;76795;51.360;4.546;2024-03-06T00:14:21;8.60;90.50
86136;DHT22;76795;51.360;4.546;2024-03-06T00:16:50;8.60;90.40
86136;DHT22;76795;51.360;4.546;2024-03-06T00:19:17;8.60;90.40
86136;DHT22;76795;51.360;4.546;2024-03-06T00:21:42;8.70;90.30
86136;DHT22;76795;51.360;4.546;2024-03-06T00:24:08;8.80;90.10
86136;DHT22;76795;51.360;4.546;2024-03-06T00:26:34;8.80;89.90
86136;DHT22;76795;51.360;4.546;2024-03-06T00:28:59;8.80;89.60
86136;DHT22;76795;51.360;4.546;2024-03-06T00:31:25;8.80;89.90
86136;DHT22;76795;51.360;4.546;2024-03-06T00:33:51;8.80;89.70
86136;DHT22;76795;51.360;4.546;2024-03-06T00:36:16;8.80;89.70
86136;DHT22;76795;51.360;4.546;2024-03-06T00:38:43;8.80;89.50
86136;DHT22;76795;51.360;4.546;2024-03-06T00:41:08;8.80;89.70
86136;DHT22;76795;51.360;4.546;2024-03-06T00:43:34;8.80;89.60
86136;DHT22;76795;51.360;4.546;2024-03-06T00:46:00;8.80;89.10
86136;DHT22;76795;51.360;4.546;2024-03-06T00:48:25;8.80;89.20
86136;DHT22;76795;51.360;4.546;2024-03-06T00:50:51;8.70;89.10
86136;DHT22;76795;51.360;4.546;2024-03-06T00:53:17;8.70;89.40
86136;DHT22;76795;51.360;4.546;2024-03-06T00:55:43;8.70;89.50
86136;DHT22;76795;51.360;4.546;2024-03-06T00:58:09;8.70;89.30
86136;DHT22;76795;51.360;4.546;2024-03-06T01:00:34;8.70;89.20
86136;DHT22;76795;51.360;4.546;2024-03-06T01:03:00;8.60;89.60
86136;DHT22;76795;51.360;4.546;2024-03-06T01:05:25;8.50;90.00
86136;DHT22;76795;51.360;4.546;2024-03-06T01:07:51;8.50;90.30
86136;DHT22;76795;51.360;4.546;2024-03-06T01:10:17;8.40;90.50
86136;DHT22;76795;51.360;4.546;2024-03-06T01:12:43;8.40;90.70
86136;DHT22;76795;51.360;4.546;2024-03-06T01:15:11;8.30;90.90
86136;DHT22;76795;51.360;4.546;2024-03-06T01:17:37;8.40;90.70
86136;DHT22;76795;51.360;4.546;2024-03-06T01:20:03;8.40;90.70
86136;DHT22;76795;51.360;4.546;2024-03-06T01:22:33;8.40;90.60
86136;DHT22;76795;51.360;4.546;2024-03-06T01:24:58;8.40;90.60
86136;DHT22;76795;51.360;4.546;2024-03-06T01:27:25;8.40;90.50
86136;DHT22;76795;51.360;4.546;2024-03-06T01:29:50;8.30;90.70
86136;DHT22;76795;51.360;4.546;2024-03-06T01:32:16;8.30;90.90
86136;DHT22;76795;51.360;4.546;2024-03-06T01:34:42;8.20;91.00
86136;DHT22;76795;51.360;4.546;2024-03-06T01:37:07;8.20;91.10
86136;DHT22;76795;51.360;4.546;2024-03-06T01:39:33;8.20;91.10
86136;DHT22;76795;51.360;4.546;2024-03-06T01:42:01;8.20;91.00
86136;DHT22;76795;51.360;4.546;2024-03-06T01:44:27;8.20;91.10
86136;DHT22;76795;51.360;4.546;2024-03-06T01:46:53;8.20;91.00
86136;DHT22;76795;51.360;4.546;2024-03-06T01:49:20;8.30;90.80
86136;DHT22;76795;51.360;4.546;2024-03-06T01:51:50;8.30;90.80
86136;DHT22;76795;51.360;4.546;2024-03-06T01:54:16;8.20;91.00
86136;DHT22;76795;51.360;4.546;2024-03-06T01:56:46;8.20;91.10
86136;DHT22;76795;51.360;4.546;2024-03-06T01:59:20;8.20;91.00
86136;DHT22;76795;51.360;4.546;2024-03-06T02:01:46;8.20;90.80
86136;DHT22;76795;51.360;4.546;2024-03-06T02:04:12;8.20;90.70
86136;DHT22;76795;51.360;4.546;2024-03-06T02:06:39;8.20;90.50
86136;DHT22;76795;51.360;4.546;2024-03-06T02:09:05;8.20;90.90
86136;DHT22;76795;51.360;4.546;2024-03-06T02:11:32;8.10;90.60
86136;DHT22;76795;51.360;4.546;2024-03-06T02:13:58;8.10;90.50
86136;DHT22;76795;51.360;4.546;2024-03-06T02:16:24;8.10;90.50
86136;DHT22;76795;51.360;4.546;2024-03-06T02:18:59;8.10;90.40
86136;DHT22;76795;51.360;4.546;2024-03-06T02:21:25;8.10;90.40
86136;DHT22;76795;51.360;4.546;2024-03-06T02:23:51;8.00;90.40
86136;DHT22;76795;51.360;4.546;2024-03-06T02:26:21;7.90;90.40
86136;DHT22;76795;51.360;4.546;2024-03-06T02:28:51;7.90;90.60
86136;DHT22;76795;51.360;4.546;2024-03-06T02:31:17;7.70;90.70
86136;DHT22;76795;51.360;4.546;2024-03-06T02:33:44;7.70;90.90
86136;DHT22;76795;51.360;4.546;2024-03-06T02:36:16;7.70;90.80
86136;DHT22;76795;51.360;4.546;2024-03-06T02:38:45;7.60;90.90
86136;DHT22;76795;51.360;4.546;2024-03-06T02:41:12;7.60;91.10
86136;DHT22;76795;51.360;4.546;2024-03-06T02:43:39;7.60;91.10
86136;DHT22;76795;51.360;4.546;2024-03-06T02:46:05;7.60;91.10
86136;DHT22;76795;51.360;4.546;2024-03-06T02:48:31;7.70;91.10
86136;DHT22;76795;51.360;4.546;2024-03-06T02:50:57;7.60;91.20
86136;DHT22;76795;51.360;4.546;2024-03-06T02:53:23;7.70;91.30
86136;DHT22;76795;51.360;4.546;2024-03-06T02:55:48;7.70;91.20
86136;DHT22;76795;51.360;4.546;2024-03-06T02:58:15;7.70;91.10
86136;DHT22;76795;51.360;4.546;2024-03-06T03:00:42;7.70;90.90
86136;DHT22;76795;51.360;4.546;2024-03-06T03:03:08;7.70;90.80
86136;DHT22;76795;51.360;4.546;2024-03-06T03:05:33;7.80;90.90
86136;DHT22;76795;51.360;4.546;2024-03-06T03:07:59;7.70;90.90
86136;DHT22;76795;51.360;4.546;2024-03-06T03:10:25;7.80;90.70
86136;DHT22;76795;51.360;4.546;2024-03-06T03:12:51;7.80;90.60
86136;DHT22;76795;51.360;4.546;2024-03-06T03:15:17;7.80;90.60
86136;DHT22;76795;51.360;4.546;2024-03-06T03:17:43;7.80;90.50
86136;DHT22;76795;51.360;4.546;2024-03-06T03:20:09;7.70;90.40
86136;DHT22;76795;51.360;4.546;2024-03-06T03:22:42;7.70;90.40
86136;DHT22;76795;51.360;4.546;2024-03-06T03:25:09;7.70;90.50
86136;DHT22;76795;51.360;4.546;2024-03-06T03:27:37;7.70;90.40
86136;DHT22;76795;51.360;4.546;2024-03-06T03:30:04;7.70;90.40
86136;DHT22;76795;51.360;4.546;2024-03-06T03:32:30;7.70;90.40
86136;DHT22;76795;51.360;4.546;2024-03-06T03:34:56;7.60;90.50
86136;DHT22;76795;51.360;4.546;2024-03-06T03:37:21;7.60;90.50
86136;DHT22;76795;51.360;4.546;2024-03-06T03:39:47;7.60;90.30
86136;DHT22;76795;51.360;4.546;2024-03-06T03:42:13;7.60;90.40
86136;DHT22;76795;51.360;4.546;2024-03-06T03:44:38;7.60;90.20
86136;DHT22;76795;51.360;4.546;2024-03-06T03:47:05;7.50;90.20
86136;DHT22;76795;51.360;4.546;2024-03-06T03:49:31;7.50;90.20
86136;DHT22;76795;51.360;4.546;2024-03-06T03:51:56;7.40;90.40
86136;DHT22;76795;51.360;4.546;2024-03-06T03:54:22;7.40;90.50
86136;DHT22;76795;51.360;4.546;2024-03-06T03:56:48;7.30;90.60
86136;DHT22;76795;51.360;4.546;2024-03-06T03:59:14;7.30;90.60
86136;DHT22;76795;51.360;4.546;2024-03-06T04:01:39;7.20;90.70
86136;DHT22;76795;51.360;4.546;2024-03-06T04:04:05;7.20;90.80
86136;DHT22;76795;51.360;4.546;2024-03-06T04:06:33;7.20;91.10
86136;DHT22;76795;51.360;4.546;2024-03-06T04:08:59;7.10;90.70
86136;DHT22;76795;51.360;4.546;2024-03-06T04:11:25;6.90;90.80
86136;DHT22;76795;51.360;4.546;2024-03-06T04:13:50;6.90;90.80
86136;DHT22;76795;51.360;4.546;2024-03-06T04:16:19;6.80;90.50
86136;DHT22;76795;51.360;4.546;2024-03-06T04:18:45;6.70;90.70
86136;DHT22;76795;51.360;4.546;2024-03-06T04:21:11;6.70;90.90
86136;DHT22;76795;51.360;4.546;2024-03-06T04:23:37;6.60;91.00
86136;DHT22;76795;51.360;4.546;2024-03-06T04:26:03;6.60;91.00
86136;DHT22;76795;51.360;4.546;2024-03-06T04:28:29;6.60;91.10
86136;DHT22;76795;51.360;4.546;2024-03-06T04:30:55;6.60;91.00
86136;DHT22;76795;51.360;4.546;2024-03-06T04:33:21;6.60;91.10
86136;DHT22;76795;51.360;4.546;2024-03-06T04:35:47;6.60;91.60
86136;DHT22;76795;51.360;4.546;2024-03-06T04:38:13;6.60;91.10
86136;DHT22;76795;51.360;4.546;2024-03-06T04:40:39;6.60;91.00
86136;DHT22;76795;51.360;4.546;2024-03-06T04:43:05;6.40;91.00
86136;DHT22;76795;51.360;4.546;2024-03-06T04:45:33;6.40;91.00
86136;DHT22;76795;51.360;4.546;2024-03-06T04:47:58;6.30;91.00
86136;DHT22;76795;51.360;4.546;2024-03-06T04:50:24;6.20;91.20
86136;DHT22;76795;51.360;4.546;2024-03-06T04:52:50;6.30;91.30
86136;DHT22;76795;51.360;4.546;2024-03-06T04:55:16;6.30;91.40
86136;DHT22;76795;51.360;4.546;2024-03-06T04:57:46;6.20;91.50
86136;DHT22;76795;51.360;4.546;2024-03-06T05:00:12;6.20;91.60
86136;DHT22;76795;51.360;4.546;2024-03-06T05:02:38;6.20;91.70
86136;DHT22;76795;51.360;4.546;2024-03-06T05:05:04;6.20;91.70
86136;DHT22;76795;51.360;4.546;2024-03-06T05:07:31;6.20;91.70
86136;DHT22;76795;51.360;4.546;2024-03-06T05:09:57;6.20;91.80
86136;DHT22;76795;51.360;4.546;2024-03-06T05:12:24;6.10;91.80
86136;DHT22;76795;51.360;4.546;2024-03-06T05:14:51;6.10;91.60
86136;DHT22;76795;51.360;4.546;2024-03-06T05:17:17;6.00;91.80
86136;DHT22;76795;51.360;4.546;2024-03-06T05:19:43;6.00;91.90
86136;DHT22;76795;51.360;4.546;2024-03-06T05:22:10;5.90;91.80
86136;DHT22;76795;51.360;4.546;2024-03-06T05:24:37;5.90;91.60
86136;DHT22;76795;51.360;4.546;2024-03-06T05:27:03;5.90;91.40
86136;DHT22;76795;51.360;4.546;2024-03-06T05:29:29;5.80;91.10
86136;DHT22;76795;51.360;4.546;2024-03-06T05:31:54;5.70;91.20
86136;DHT22;76795;51.360;4.546;2024-03-06T05:34:22;5.70;91.20
86136;DHT22;76795;51.360;4.546;2024-03-06T05:36:48;5.60;91.30
86136;DHT22;76795;51.360;4.546;2024-03-06T05:39:13;5.60;91.10
86136;DHT22;76795;51.360;4.546;2024-03-06T05:41:40;5.60;91.20
86136;DHT22;76795;51.360;4.546;2024-03-06T05:44:06;5.50;91.20
86136;DHT22;76795;51.360;4.546;2024-03-06T05:46:32;5.50;91.40
86136;DHT22;76795;51.360;4.546;2024-03-06T05:48:58;5.50;91.40
86136;DHT22;76795;51.360;4.546;2024-03-06T05:51:24;5.50;91.80
86136;DHT22;76795;51.360;4.546;2024-03-06T05:53:49;5.40;91.60
86136;DHT22;76795;51.360;4.546;2024-03-06T05:56:17;5.40;91.60
86136;DHT22;76795;51.360;4.546;2024-03-06T05:58:43;5.40;91.40
86136;DHT22;76795;51.360;4.546;2024-03-06T06:01:11;5.40;91.40
86136;DHT22;76795;51.360;4.546;2024-03-06T06:03:37;5.30;91.20
86136;DHT22;76795;51.360;4.546;2024-03-06T06:06:04;5.30;91.30
86136;DHT22;76795;51.360;4.546;2024-03-06T06:08:31;5.20;91.70
86136;DHT22;76795;51.360;4.546;2024-03-06T06:10:57;5.20;91.80
86136;DHT22;76795;51.360;4.546;2024-03-06T06:13:22;5.20;91.60
86136;DHT22;76795;51.360;4.546;2024-03-06T06:15:48;5.20;91.60
86136;DHT22;76795;51.360;4.546;2024-03-06T06:18:14;5.10;91.40
86136;DHT22;76795;51.360;4.546;2024-03-06T06:20:41;5.10;91.40
86136;DHT22;76795;51.360;4.546;2024-03-06T06:23:08;5.00;91.80
86136;DHT22;76795;51.360;4.546;2024-03-06T06:25:34;4.90;92.20
86136;DHT22;76795;51.360;4.546;2024-03-06T06:28:00;4.90;92.20
86136;DHT22;76795;51.360;4.546;2024-03-06T06:30:26;4.90;92.30
86136;DHT22;76795;51.360;4.546;2024-03-06T06:32:52;5.00;92.30
86136;DHT22;76795;51.360;4.546;2024-03-06T06:35:18;5.00;92.10
86136;DHT22;76795;51.360;4.546;2024-03-06T06:37:44;5.10;91.70
86136;DHT22;76795;51.360;4.546;2024-03-06T06:40:10;5.10;91.90
86136;DHT22;76795;51.360;4.546;2024-03-06T06:42:44;5.10;91.80
86136;DHT22;76795;51.360;4.546;2024-03-06T06:45:15;5.10;91.70
86136;DHT22;76795;51.360;4.546;2024-03-06T06:47:41;5.10;91.80
86136;DHT22;76795;51.360;4.546;2024-03-06T06:50:07;5.20;92.50
86136;DHT22;76795;51.360;4.546;2024-03-06T06:52:35;5.20;91.80
86136;DHT22;76795;51.360;4.546;2024-03-06T06:55:01;5.20;91.70
86136;DHT22;76795;51.360;4.546;2024-03-06T06:57:26;5.20;91.90
86136;DHT22;76795;51.360;4.546;2024-03-06T06:59:52;5.40;92.10
86136;DHT22;76795;51.360;4.546;2024-03-06T07:02:18;5.40;92.00
86136;DHT22;76795;51.360;4.546;2024-03-06T07:04:44;5.60;91.90
86136;DHT22;76795;51.360;4.546;2024-03-06T07:07:09;5.60;91.80
86136;DHT22;76795;51.360;4.546;2024-03-06T07:09:35;5.60;91.90
86136;DHT22;76795;51.360;4.546;2024-03-06T07:12:01;5.70;91.90
86136;DHT22;76795;51.360;4.546;2024-03-06T07:14:28;5.70;92.00
86136;DHT22;76795;51.360;4.546;2024-03-06T07:16:54;5.80;92.30
86136;DHT22;76795;51.360;4.546;2024-03-06T07:19:20;5.90;91.60
86136;DHT22;76795;51.360;4.546;2024-03-06T07:21:45;5.90;91.60
86136;DHT22;76795;51.360;4.546;2024-03-06T07:24:11;5.90;91.80
86136;DHT22;76795;51.360;4.546;2024-03-06T07:26:37;6.00;91.80
86136;DHT22;76795;51.360;4.546;2024-03-06T07:29:02;6.10;91.60
86136;DHT22;76795;51.360;4.546;2024-03-06T07:31:28;6.10;91.60
86136;DHT22;76795;51.360;4.546;2024-03-06T07:33:54;6.20;91.80
86136;DHT22;76795;51.360;4.546;2024-03-06T07:36:20;6.30;91.70
86136;DHT22;76795;51.360;4.546;2024-03-06T07:38:47;6.20;91.70
86136;DHT22;76795;51.360;4.546;2024-03-06T07:41:12;6.20;91.90
86136;DHT22;76795;51.360;4.546;2024-03-06T07:43:38;6.30;92.10
86136;DHT22;76795;51.360;4.546;2024-03-06T07:46:04;6.20;92.20
86136;DHT22;76795;51.360;4.546;2024-03-06T07:48:36;6.30;92.30
86136;DHT22;76795;51.360;4.546;2024-03-06T07:51:02;6.40;92.20
86136;DHT22;76795;51.360;4.546;2024-03-06T07:53:28;6.40;92.40
86136;DHT22;76795;51.360;4.546;2024-03-06T07:55:54;6.50;92.30
86136;DHT22;76795;51.360;4.546;2024-03-06T07:58:19;6.70;92.60
86136;DHT22;76795;51.360;4.546;2024-03-06T08:00:46;6.70;92.30
86136;DHT22;76795;51.360;4.546;2024-03-06T08:03:12;6.80;92.10
86136;DHT22;76795;51.360;4.546;2024-03-06T08:05:39;6.80;92.20
86136;DHT22;76795;51.360;4.546;2024-03-06T08:08:05;7.00;92.10
86136;DHT22;76795;51.360;4.546;2024-03-06T08:10:31;6.90;91.80
86136;DHT22;76795;51.360;4.546;2024-03-06T08:12:56;7.00;92.10
86136;DHT22;76795;51.360;4.546;2024-03-06T08:15:23;7.10;92.20
86136;DHT22;76795;51.360;4.546;2024-03-06T08:17:49;7.20;91.80
86136;DHT22;76795;51.360;4.546;2024-03-06T08:20:15;7.30;91.70
86136;DHT22;76795;51.360;4.546;2024-03-06T08:22:42;7.50;91.40
86136;DHT22;76795;51.360;4.546;2024-03-06T08:25:08;7.60;91.20
86136;DHT22;76795;51.360;4.546;2024-03-06T08:27:35;7.90;91.40
86136;DHT22;76795;51.360;4.546;2024-03-06T08:30:05;8.00;91.10
86136;DHT22;76795;51.360;4.546;2024-03-06T08:32:35;8.10;91.10
86136;DHT22;76795;51.360;4.546;2024-03-06T08:35:09;8.10;90.80
86136;DHT22;76795;51.360;4.546;2024-03-06T08:37:40;8.10;90.70
86136;DHT22;76795;51.360;4.546;2024-03-06T08:40:07;8.10;91.50
86136;DHT22;76795;51.360;4.546;2024-03-06T08:42:33;8.50;90.80
86136;DHT22;76795;51.360;4.546;2024-03-06T08:44:59;8.70;89.80
86136;DHT22;76795;51.360;4.546;2024-03-06T08:47:24;8.70;88.20
86136;DHT22;76795;51.360;4.546;2024-03-06T08:49:50;8.70;88.60
86136;DHT22;76795;51.360;4.546;2024-03-06T08:52:16;8.60;88.10
86136;DHT22;76795;51.360;4.546;2024-03-06T08:54:41;8.60;89.50
86136;DHT22;76795;51.360;4.546;2024-03-06T08:57:07;8.70;89.10
86136;DHT22;76795;51.360;4.546;2024-03-06T08:59:35;8.90;88.40
86136;DHT22;76795;51.360;4.546;2024-03-06T09:02:13;9.00;87.90
86136;DHT22;76795;51.360;4.546;2024-03-06T09:04:40;8.80;87.70
86136;DHT22;76795;51.360;4.546;2024-03-06T09:07:06;8.50;89.00
86136;DHT22;76795;51.360;4.546;2024-03-06T09:09:32;8.70;89.50
86136;DHT22;76795;51.360;4.546;2024-03-06T09:12:00;8.50;89.10
86136;DHT22;76795;51.360;4.546;2024-03-06T09:14:26;8.70;89.70
86136;DHT22;76795;51.360;4.546;2024-03-06T09:16:51;8.80;88.60
86136;DHT22;76795;51.360;4.546;2024-03-06T09:19:17;9.00;88.00
86136;DHT22;76795;51.360;4.546;2024-03-06T09:21:42;9.20;87.10
86136;DHT22;76795;51.360;4.546;2024-03-06T09:24:08;9.10;86.00
86136;DHT22;76795;51.360;4.546;2024-03-06T09:26:34;9.20;86.60
86136;DHT22;76795;51.360;4.546;2024-03-06T09:29:00;9.20;86.80
86136;DHT22;76795;51.360;4.546;2024-03-06T09:31:26;9.30;86.10
86136;DHT22;76795;51.360;4.546;2024-03-06T09:33:53;9.40;86.40
86136;DHT22;76795;51.360;4.546;2024-03-06T09:36:19;9.10;85.70
86136;DHT22;76795;51.360;4.546;2024-03-06T09:38:44;9.00;87.50
86136;DHT22;76795;51.360;4.546;2024-03-06T09:41:10;8.90;87.50
86136;DHT22;76795;51.360;4.546;2024-03-06T09:43:36;9.00;87.40
86136;DHT22;76795;51.360;4.546;2024-03-06T09:46:02;9.00;87.80
86136;DHT22;76795;51.360;4.546;2024-03-06T09:48:29;9.00;87.80
86136;DHT22;76795;51.360;4.546;2024-03-06T09:51:01;9.00;87.30
86136;DHT22;76795;51.360;4.546;2024-03-06T09:53:28;9.10;86.70
86136;DHT22;76795;51.360;4.546;2024-03-06T09:55:55;9.20;87.40
86136;DHT22;76795;51.360;4.546;2024-03-06T09:58:21;9.30;86.20
86136;DHT22;76795;51.360;4.546;2024-03-06T10:00:48;9.20;85.90
86136;DHT22;76795;51.360;4.546;2024-03-06T10:03:15;9.30;86.30
86136;DHT22;76795;51.360;4.546;2024-03-06T10:05:41;9.50;86.30
86136;DHT22;76795;51.360;4.546;2024-03-06T10:08:09;9.80;84.60
86136;DHT22;76795;51.360;4.546;2024-03-06T10:10:35;9.80;83.40
86136;DHT22;76795;51.360;4.546;2024-03-06T10:13:02;10.10;83.40
86136;DHT22;76795;51.360;4.546;2024-03-06T10:15:28;10.30;81.10
86136;DHT22;76795;51.360;4.546;2024-03-06T10:18:16;10.30;80.90
86136;DHT22;76795;51.360;4.546;2024-03-06T10:20:44;10.20;81.90
86136;DHT22;76795;51.360;4.546;2024-03-06T10:23:10;10.40;82.30
86136;DHT22;76795;51.360;4.546;2024-03-06T10:25:36;10.70;80.10
86136;DHT22;76795;51.360;4.546;2024-03-06T10:30:39;11.10;79.50
86136;DHT22;76795;51.360;4.546;2024-03-06T10:33:09;10.90;79.30
86136;DHT22;76795;51.360;4.546;2024-03-06T10:35:35;10.90;78.10
86136;DHT22;76795;51.360;4.546;2024-03-06T10:38:06;10.80;78.60
86136;DHT22;76795;51.360;4.546;2024-03-06T10:40:33;10.80;78.70
86136;DHT22;76795;51.360;4.546;2024-03-06T10:43:00;11.00;77.50
86136;DHT22;76795;51.360;4.546;2024-03-06T10:45:48;11.00;76.60
86136;DHT22;76795;51.360;4.546;2024-03-06T10:48:15;11.10;75.60
86136;DHT22;76795;51.360;4.546;2024-03-06T10:50:42;10.90;75.90
86136;DHT22;76795;51.360;4.546;2024-03-06T10:53:15;10.80;77.20
86136;DHT22;76795;51.360;4.546;2024-03-06T10:55:43;10.80;77.30
86136;DHT22;76795;51.360;4.546;2024-03-06T10:58:12;10.80;77.40
86136;DHT22;76795;51.360;4.546;2024-03-06T11:00:39;10.70;76.20
86136;DHT22;76795;51.360;4.546;2024-03-06T11:03:09;10.60;76.90
86136;DHT22;76795;51.360;4.546;2024-03-06T11:05:44;10.60;77.00
86136;DHT22;76795;51.360;4.546;2024-03-06T11:08:14;10.60;77.90
86136;DHT22;76795;51.360;4.546;2024-03-06T11:10:41;10.80;76.80
86136;DHT22;76795;51.360;4.546;2024-03-06T11:15:49;11.20;73.90
86136;DHT22;76795;51.360;4.546;2024-03-06T11:23:32;10.90;75.40
86136;DHT22;76795;51.360;4.546;2024-03-06T11:26:03;11.20;74.00
86136;DHT22;76795;51.360;4.546;2024-03-06T11:28:33;11.10;73.70
86136;DHT22;76795;51.360;4.546;2024-03-06T11:31:10;11.10;75.50
86136;DHT22;76795;51.360;4.546;2024-03-06T11:33:52;11.20;76.20
86136;DHT22;76795;51.360;4.546;2024-03-06T11:39:08;11.00;75.90
86136;DHT22;76795;51.360;4.546;2024-03-06T11:41:49;11.20;75.10
86136;DHT22;76795;51.360;4.546;2024-03-06T11:44:18;11.60;74.80
86136;DHT22;76795;51.360;4.546;2024-03-06T11:49:29;12.50;71.10
86136;DHT22;76795;51.360;4.546;2024-03-06T11:52:03;12.60;70.20
86136;DHT22;76795;51.360;4.546;2024-03-06T11:54:30;12.80;68.50
86136;DHT22;76795;51.360;4.546;2024-03-06T11:56:59;13.00;69.10
86136;DHT22;76795;51.360;4.546;2024-03-06T12:02:01;13.00;66.50
86136;DHT22;76795;51.360;4.546;2024-03-06T12:04:28;13.00;68.30
86136;DHT22;76795;51.360;4.546;2024-03-06T12:06:57;12.90;67.10
86136;DHT22;76795;51.360;4.546;2024-03-06T12:09:25;13.20;67.80
86136;DHT22;76795;51.360;4.546;2024-03-06T12:11:51;13.10;66.30
86136;DHT22;76795;51.360;4.546;2024-03-06T12:14:20;12.70;67.10
86136;DHT22;76795;51.360;4.546;2024-03-06T12:16:56;12.30;67.10
86136;DHT22;76795;51.360;4.546;2024-03-06T12:19:28;12.20;68.20
86136;DHT22;76795;51.360;4.546;2024-03-06T12:21:54;12.00;68.50
86136;DHT22;76795;51.360;4.546;2024-03-06T12:24:19;12.30;68.60
86136;DHT22;76795;51.360;4.546;2024-03-06T12:26:46;12.50;68.40
86136;DHT22;76795;51.360;4.546;2024-03-06T12:29:18;12.60;66.90
86136;DHT22;76795;51.360;4.546;2024-03-06T12:31:46;12.70;66.50
86136;DHT22;76795;51.360;4.546;2024-03-06T12:34:15;12.90;66.80
86136;DHT22;76795;51.360;4.546;2024-03-06T12:36:44;13.10;66.10
86136;DHT22;76795;51.360;4.546;2024-03-06T12:39:15;13.00;64.90
86136;DHT22;76795;51.360;4.546;2024-03-06T12:41:43;12.90;65.30
86136;DHT22;76795;51.360;4.546;2024-03-06T12:44:09;13.20;65.70
86136;DHT22;76795;51.360;4.546;2024-03-06T12:46:35;13.50;65.90
86136;DHT22;76795;51.360;4.546;2024-03-06T12:49:01;13.40;63.00
86136;DHT22;76795;51.360;4.546;2024-03-06T12:51:27;13.20;63.00
86136;DHT22;76795;51.360;4.546;2024-03-06T12:53:52;12.80;64.40
86136;DHT22;76795;51.360;4.546;2024-03-06T12:56:18;12.60;65.40
86136;DHT22;76795;51.360;4.546;2024-03-06T12:58:44;12.90;66.70
86136;DHT22;76795;51.360;4.546;2024-03-06T13:01:10;13.00;66.10
86136;DHT22;76795;51.360;4.546;2024-03-06T13:03:36;13.20;66.00
86136;DHT22;76795;51.360;4.546;2024-03-06T13:06:03;13.30;65.70
86136;DHT22;76795;51.360;4.546;2024-03-06T13:08:32;13.50;66.20
86136;DHT22;76795;51.360;4.546;2024-03-06T13:10:57;13.60;64.90
86136;DHT22;76795;51.360;4.546;2024-03-06T13:13:24;13.80;66.00
86136;DHT22;76795;51.360;4.546;2024-03-06T13:15:50;13.90;65.60
86136;DHT22;76795;51.360;4.546;2024-03-06T13:18:17;13.50;63.00
86136;DHT22;76795;51.360;4.546;2024-03-06T13:20:43;12.70;64.30
86136;DHT22;76795;51.360;4.546;2024-03-06T13:23:09;12.40;65.60
86136;DHT22;76795;51.360;4.546;2024-03-06T13:25:35;12.60;66.10
86136;DHT22;76795;51.360;4.546;2024-03-06T13:28:01;12.40;65.40
86136;DHT22;76795;51.360;4.546;2024-03-06T13:30:28;12.60;65.40
86136;DHT22;76795;51.360;4.546;2024-03-06T13:32:54;12.60;66.80
86136;DHT22;76795;51.360;4.546;2024-03-06T13:35:19;12.40;65.60
86136;DHT22;76795;51.360;4.546;2024-03-06T13:37:45;12.30;66.50
86136;DHT22;76795;51.360;4.546;2024-03-06T13:40:12;12.40;67.20
86136;DHT22;76795;51.360;4.546;2024-03-06T13:42:41;12.70;67.40
86136;DHT22;76795;51.360;4.546;2024-03-06T13:45:08;12.40;66.30
86136;DHT22;76795;51.360;4.546;2024-03-06T13:47:38;12.70;68.00
86136;DHT22;76795;51.360;4.546;2024-03-06T13:52:34;12.70;65.00
86136;DHT22;76795;51.360;4.546;2024-03-06T13:55:00;12.70;64.90
86136;DHT22;76795;51.360;4.546;2024-03-06T13:57:28;12.80;66.70
86136;DHT22;76795;51.360;4.546;2024-03-06T13:59:54;12.90;66.40
86136;DHT22;76795;51.360;4.546;2024-03-06T14:02:20;13.10;66.00
86136;DHT22;76795;51.360;4.546;2024-03-06T14:04:46;13.20;65.70
86136;DHT22;76795;51.360;4.546;2024-03-06T14:07:12;13.30;66.00
86136;DHT22;76795;51.360;4.546;2024-03-06T14:09:38;13.40;65.40
86136;DHT22;76795;51.360;4.546;2024-03-06T14:12:03;13.30;63.90
86136;DHT22;76795;51.360;4.546;2024-03-06T14:14:29;13.20;64.10
86136;DHT22;76795;51.360;4.546;2024-03-06T14:16:55;13.30;64.00
86136;DHT22;76795;51.360;4.546;2024-03-06T14:19:21;13.40;64.00
86136;DHT22;76795;51.360;4.546;2024-03-06T14:21:49;13.40;61.40
86136;DHT22;76795;51.360;4.546;2024-03-06T14:24:15;13.20;63.10
86136;DHT22;76795;51.360;4.546;2024-03-06T14:26:40;13.30;63.40
86136;DHT22;76795;51.360;4.546;2024-03-06T14:29:07;13.40;63.70
86136;DHT22;76795;51.360;4.546;2024-03-06T14:31:33;13.40;62.60
86136;DHT22;76795;51.360;4.546;2024-03-06T14:34:00;13.20;62.60
86136;DHT22;76795;51.360;4.546;2024-03-06T14:36:25;13.40;63.20
86136;DHT22;76795;51.360;4.546;2024-03-06T14:38:52;13.30;62.70
86136;DHT22;76795;51.360;4.546;2024-03-06T14:41:20;13.10;63.80
86136;DHT22;76795;51.360;4.546;2024-03-06T14:43:46;12.80;64.10
86136;DHT22;76795;51.360;4.546;2024-03-06T14:46:12;12.50;65.90
86136;DHT22;76795;51.360;4.546;2024-03-06T14:48:38;12.40;66.00
86136;DHT22;76795;51.360;4.546;2024-03-06T14:51:04;12.20;67.10
86136;DHT22;76795;51.360;4.546;2024-03-06T14:53:30;12.30;66.10
86136;DHT22;76795;51.360;4.546;2024-03-06T14:55:57;12.60;65.60
86136;DHT22;76795;51.360;4.546;2024-03-06T14:58:22;12.80;68.70
86136;DHT22;76795;51.360;4.546;2024-03-06T15:00:49;12.80;66.80
86136;DHT22;76795;51.360;4.546;2024-03-06T15:03:16;12.80;67.90
86136;DHT22;76795;51.360;4.546;2024-03-06T15:05:43;13.00;65.40
86136;DHT22;76795;51.360;4.546;2024-03-06T15:08:10;13.10;64.70
86136;DHT22;76795;51.360;4.546;2024-03-06T15:10:36;13.10;64.10
86136;DHT22;76795;51.360;4.546;2024-03-06T15:13:01;12.90;63.90
86136;DHT22;76795;51.360;4.546;2024-03-06T15:15:27;13.00;64.40
86136;DHT22;76795;51.360;4.546;2024-03-06T15:17:53;12.70;64.90
86136;DHT22;76795;51.360;4.546;2024-03-06T15:20:19;12.70;64.00
86136;DHT22;76795;51.360;4.546;2024-03-06T15:22:45;12.40;65.30
86136;DHT22;76795;51.360;4.546;2024-03-06T15:25:11;12.10;66.40
86136;DHT22;76795;51.360;4.546;2024-03-06T15:27:37;12.20;67.50
86136;DHT22;76795;51.360;4.546;2024-03-06T15:30:05;12.30;67.70
86136;DHT22;76795;51.360;4.546;2024-03-06T15:32:31;12.30;66.20
86136;DHT22;76795;51.360;4.546;2024-03-06T15:34:56;12.30;66.70
86136;DHT22;76795;51.360;4.546;2024-03-06T15:37:24;12.30;67.20
86136;DHT22;76795;51.360;4.546;2024-03-06T15:39:53;12.60;66.20
86136;DHT22;76795;51.360;4.546;2024-03-06T15:42:20;12.70;66.00
86136;DHT22;76795;51.360;4.546;2024-03-06T15:44:48;12.50;65.60
86136;DHT22;76795;51.360;4.546;2024-03-06T15:47:14;12.30;65.60
86136;DHT22;76795;51.360;4.546;2024-03-06T15:49:40;12.40;65.70
86136;DHT22;76795;51.360;4.546;2024-03-06T15:52:06;12.60;65.10
86136;DHT22;76795;51.360;4.546;2024-03-06T15:54:32;12.50;65.20
86136;DHT22;76795;51.360;4.546;2024-03-06T15:56:58;12.50;65.90
86136;DHT22;76795;51.360;4.546;2024-03-06T15:59:24;12.60;65.60